| time (UTC) | temp F | wind direction | speed knots | gust knots | rain 1hr in | rain 24hr in | rain mn in | humidity % | barometer mb |
| 20260507040307 | 64 | 238 | 0.0 | 1.7 | 0.07 | 0.00 | 0.00 | 88 | 1012.2 |
| 20260507035802 | 65 | 250 | 0.0 | 1.7 | 0.12 | 0.02 | 0.02 | 86 | 1011.9 |
| 20260507035258 | 66 | 232 | 1.7 | 3.5 | 0.00 | 0.00 | 0.00 | 84 | 1011.8 |
| 20260507034756 | 66 | 247 | 0.0 | 0.9 | 0.00 | 0.00 | 0.00 | 82 | 1011.4 |
| 20260507034252 | 66 | 235 | 0.0 | 0.9 | 0.00 | 0.00 | 0.00 | 81 | 1011.4 |
| 20260507033751 | 67 | 236 | 0.0 | 0.9 | 0.00 | 0.00 | 0.00 | 80 | 1011.3 |
| 20260507033248 | 67 | 224 | 3.5 | 5.2 | 0.00 | 0.00 | 0.00 | 80 | 1011.1 |
| 20260507032745 | 67 | 236 | 0.9 | 2.6 | 0.00 | 0.00 | 0.00 | 80 | 1011.1 |
| 20260507032241 | 67 | 224 | 1.7 | 3.5 | 0.00 | 0.00 | 0.00 | 80 | 1011.1 |
| 20260507031738 | 67 | 230 | 0.9 | 2.6 | 0.00 | 0.00 | 0.00 | 80 | 1011.0 |
| 20260507031235 | 67 | 244 | 2.6 | 6.1 | 0.00 | 0.00 | 0.00 | 80 | 1011.1 |
| 20260507030731 | 67 | 230 | 0.0 | 0.9 | 0.00 | 0.00 | 0.00 | 80 | 1011.2 |
| 20260507030229 | 66 | 257 | 0.9 | 1.7 | 0.00 | 0.00 | 0.00 | 81 | 1011.3 |
| 20260507025726 | 66 | 236 | 1.7 | 1.7 | 0.00 | 0.00 | 0.00 | 81 | 1011.1 |
| 20260507025223 | 66 | 214 | 2.6 | 5.2 | 0.00 | 0.00 | 0.00 | 82 | 1011.0 |
| 20260507024721 | 65 | 234 | 0.0 | 1.7 | 0.00 | 0.00 | 0.00 | 83 | 1011.2 |
| 20260507024218 | 65 | 239 | 0.0 | 1.7 | 0.00 | 0.00 | 0.00 | 84 | 1011.4 |
| 20260507023713 | 64 | 245 | 1.7 | 2.6 | 0.00 | 0.00 | 0.00 | 87 | 1011.2 |
| 20260507023211 | 62 | 232 | 0.9 | 0.9 | 0.00 | 0.00 | 0.00 | 89 | 1011.3 |
| 20260507022708 | 61 | 234 | 0.0 | 2.6 | 0.00 | 0.00 | 0.00 | 87 | 1011.1 |
| 20260507022204 | 61 | 222 | 0.0 | 0.0 | 0.00 | 0.00 | 0.00 | 87 | 1011.3 |
| 20260507021700 | 61 | 223 | 0.0 | 0.0 | 0.00 | 0.00 | 0.00 | 87 | 1011.6 |
| 20260507021155 | 60 | 219 | 0.0 | 0.0 | 0.00 | 0.00 | 0.00 | 86 | 1011.8 |
| 20260507020654 | 60 | 227 | 0.0 | 0.0 | 0.00 | 0.00 | 0.00 | 86 | 1011.7 |
| 20260507020150 | 60 | 227 | 0.0 | 0.0 | 0.00 | 0.00 | 0.00 | 86 | 1011.7 |
| 20260507015648 | 60 | 227 | 0.0 | 0.0 | 0.00 | 0.00 | 0.00 | 85 | 1011.7 |
| 20260507015145 | 60 | 227 | 0.0 | 0.0 | 0.00 | 0.00 | 0.00 | 85 | 1011.6 |
| 20260507014642 | 60 | 227 | 0.0 | 0.0 | 0.00 | 0.00 | 0.00 | 85 | 1011.7 |
| 20260507014138 | 60 | 227 | 0.0 | 0.0 | 0.00 | 0.00 | 0.00 | 84 | 1011.8 |
| 20260507013635 | 60 | 227 | 0.0 | 0.0 | 0.00 | 0.00 | 0.00 | 84 | 1011.4 |
| 20260507013132 | 60 | 227 | 0.0 | 0.0 | 0.00 | 0.00 | 0.00 | 84 | 1011.7 |
| 20260507012629 | 59 | 227 | 0.0 | 0.0 | 0.00 | 0.00 | 0.00 | 84 | 1011.8 |
| 20260507012124 | 59 | 227 | 0.0 | 0.0 | 0.00 | 0.00 | 0.00 | 84 | 1011.8 |
| 20260507011623 | 59 | 227 | 0.0 | 0.0 | 0.00 | 0.00 | 0.00 | 84 | 1012.1 |
| 20260507011119 | 59 | 227 | 0.0 | 0.0 | 0.00 | 0.00 | 0.00 | 84 | 1011.5 |
| 20260507010614 | 59 | 227 | 0.0 | 0.0 | 0.00 | 0.00 | 0.00 | 84 | 1011.2 |
| 20260507010110 | 59 | 228 | 0.0 | 0.0 | 0.00 | 0.00 | 0.00 | 84 | 1011.2 |
| 20260507005608 | 59 | 227 | 0.0 | 0.0 | 0.00 | 0.00 | 0.00 | 84 | 1011.6 |
| 20260507005103 | 59 | 228 | 0.0 | 0.0 | 0.00 | 0.00 | 0.00 | 83 | 1011.4 |
| 20260507004601 | 59 | 227 | 0.0 | 0.0 | 0.00 | 0.00 | 0.00 | 82 | 1011.5 |
| 20260507004058 | 59 | 234 | 0.0 | 0.0 | 0.00 | 0.00 | 0.00 | 82 | 1011.7 |
| 20260507003554 | 59 | 226 | 0.0 | 0.0 | 0.00 | 0.00 | 0.00 | 81 | 1011.2 |
| 20260507003049 | 59 | 211 | 0.0 | 0.0 | 0.00 | 0.00 | 0.00 | 81 | 1011.4 |
| 20260507002546 | 59 | 233 | 0.0 | 0.0 | 0.00 | 0.00 | 0.00 | 81 | 1011.5 |
| 20260507002042 | 59 | 233 | 0.0 | 0.0 | 0.00 | 0.00 | 0.00 | 81 | 1011.3 |
| 20260507001539 | 60 | 246 | 0.0 | 0.9 | 0.00 | 0.00 | 0.00 | 80 | 1011.4 |
| 20260507001036 | 60 | 203 | 0.9 | 0.9 | 0.00 | 0.00 | 0.00 | 80 | 1011.5 |
| 20260507000532 | 60 | 164 | 0.0 | 0.9 | 0.00 | 0.00 | 0.00 | 79 | 1011.4 |
| 20260507000028 | 61 | 233 | 0.0 | 0.9 | 0.00 | 0.00 | 0.00 | 80 | 1011.3 |
| 20260506235526 | 61 | 209 | 0.9 | 0.9 | 0.00 | 0.00 | 0.00 | 79 | 1011.5 |
| 20260506235021 | 61 | 229 | 0.0 | 0.9 | 0.00 | 0.00 | 0.00 | 79 | 1011.3 |
| 20260506234519 | 62 | 30 | 1.7 | 2.6 | 0.00 | 0.00 | 0.00 | 77 | 1011.1 |
| 20260506234016 | 62 | 135 | 0.9 | 0.9 | 0.00 | 0.00 | 0.00 | 76 | 1011.1 |
| 20260506233512 | 64 | 88 | 0.9 | 1.7 | 0.00 | 0.00 | 0.00 | 74 | 1010.9 |
| 20260506233009 | 66 | 227 | 0.0 | 1.7 | 0.00 | 0.00 | 0.00 | 71 | 1011.0 |
| 20260506232505 | 69 | 162 | 0.9 | 1.7 | 0.00 | 0.00 | 0.00 | 70 | 1010.6 |
| 20260506232001 | 69 | 226 | 2.6 | 3.5 | 0.00 | 0.00 | 0.00 | 72 | 1010.9 |
| 20260506231458 | 69 | 184 | 1.7 | 3.5 | 0.00 | 0.00 | 0.00 | 72 | 1010.9 |
| 20260506230956 | 69 | 209 | 0.9 | 6.1 | 0.00 | 0.00 | 0.00 | 72 | 1011.0 |
| 20260506230452 | 69 | 237 | 0.0 | 5.2 | 0.00 | 0.00 | 0.00 | 72 | 1010.7 |
| 20260506225949 | 69 | 223 | 1.7 | 3.5 | 0.00 | 0.00 | 0.00 | 71 | 1010.8 |
| 20260506225446 | 69 | 202 | 2.6 | 5.2 | 0.00 | 0.00 | 0.00 | 71 | 1011.0 |
| 20260506224943 | 69 | 231 | 1.7 | 2.6 | 0.00 | 0.00 | 0.00 | 71 | 1010.7 |
| 20260506224440 | 69 | 239 | 1.7 | 5.2 | 0.00 | 0.00 | 0.00 | 71 | 1010.8 |
| 20260506223936 | 69 | 213 | 0.9 | 1.7 | 0.00 | 0.00 | 0.00 | 71 | 1010.6 |
| 20260506223432 | 69 | 244 | 0.0 | 6.1 | 0.00 | 0.00 | 0.00 | 71 | 1010.9 |
| 20260506222930 | 69 | 217 | 1.7 | 6.1 | 0.00 | 0.00 | 0.00 | 71 | 1010.6 |
| 20260506222426 | 69 | 243 | 1.7 | 3.5 | 0.00 | 0.00 | 0.00 | 72 | 1010.8 |
| 20260506221923 | 69 | 233 | 0.0 | 2.6 | 0.00 | 0.00 | 0.00 | 73 | 1010.8 |
| 20260506221420 | 69 | 219 | 2.6 | 3.5 | 0.00 | 0.00 | 0.00 | 72 | 1010.9 |
| 20260506220918 | 69 | 221 | 0.9 | 2.6 | 0.00 | 0.00 | 0.00 | 72 | 1010.6 |
| 20260506220413 | 69 | 208 | 4.3 | 7.0 | 0.00 | 0.00 | 0.00 | 72 | 1010.6 |
| 20260506215910 | 69 | 216 | 1.7 | 2.6 | 0.00 | 0.00 | 0.00 | 72 | 1010.6 |
| 20260506215406 | 69 | 235 | 1.7 | 6.1 | 0.00 | 0.00 | 0.00 | 72 | 1010.6 |
| 20260506214902 | 69 | 234 | 1.7 | 3.5 | 0.00 | 0.00 | 0.00 | 73 | 1010.6 |
| 20260506214359 | 69 | 237 | 0.0 | 1.7 | 0.00 | 0.00 | 0.00 | 73 | 1010.5 |
| 20260506213857 | 69 | 209 | 1.7 | 2.6 | 0.00 | 0.00 | 0.00 | 73 | 1010.6 |
| 20260506213354 | 68 | 237 | 1.7 | 2.6 | 0.00 | 0.00 | 0.00 | 74 | 1010.5 |
| 20260506212851 | 68 | 219 | 1.7 | 2.6 | 0.00 | 0.00 | 0.00 | 74 | 1010.3 |
| 20260506212347 | 69 | 146 | 2.6 | 3.5 | 0.00 | 0.00 | 0.00 | 74 | 1010.2 |
| 20260506211842 | 69 | 197 | 2.6 | 5.2 | 0.00 | 0.00 | 0.00 | 74 | 1010.2 |
| 20260506211338 | 69 | 170 | 3.5 | 6.1 | 0.00 | 0.00 | 0.00 | 73 | 1010.3 |
| 20260506210836 | 69 | 203 | 4.3 | 6.1 | 0.00 | 0.00 | 0.00 | 73 | 1010.2 |
| 20260506210332 | 68 | 240 | 3.5 | 3.5 | 0.00 | 0.00 | 0.00 | 74 | 1010.2 |
| 20260506205830 | 68 | 189 | 1.7 | 2.6 | 0.00 | 0.00 | 0.00 | 74 | 1009.8 |
| 20260506205325 | 68 | 236 | 0.9 | 5.2 | 0.00 | 0.00 | 0.00 | 74 | 1010.2 |
| 20260506204822 | 68 | 236 | 1.7 | 3.5 | 0.00 | 0.00 | 0.00 | 74 | 1010.2 |
| 20260506204320 | 68 | 267 | 0.9 | 2.6 | 0.00 | 0.00 | 0.00 | 75 | 1010.4 |
| 20260506203817 | 68 | 232 | 1.7 | 2.6 | 0.00 | 0.00 | 0.00 | 75 | 1010.0 |
| 20260506203314 | 68 | 208 | 1.7 | 5.2 | 0.00 | 0.00 | 0.00 | 75 | 1010.4 |
| 20260506202811 | 67 | 270 | 1.7 | 5.2 | 0.00 | 0.00 | 0.00 | 75 | 1010.2 |
| 20260506202308 | 67 | 259 | 3.5 | 8.7 | 0.00 | 0.00 | 0.00 | 75 | 1010.3 |
| 20260506201804 | 67 | 223 | 1.7 | 6.1 | 0.00 | 0.00 | 0.00 | 75 | 1010.4 |
| 20260506201302 | 67 | 227 | 1.7 | 7.8 | 0.00 | 0.00 | 0.00 | 75 | 1010.3 |
| 20260506200759 | 67 | 200 | 2.6 | 5.2 | 0.00 | 0.00 | 0.00 | 75 | 1010.5 |
| 20260506200249 | 67 | 249 | 1.7 | 3.5 | 0.00 | 0.00 | 0.00 | 75 | 1010.5 |
| 20260506195746 | 67 | 223 | 4.3 | 7.0 | 0.00 | 0.00 | 0.00 | 76 | 1010.5 |
| 20260506195242 | 67 | 179 | 7.8 | 9.6 | 0.00 | 0.00 | 0.00 | 76 | 1010.6 |
| 20260506194740 | 66 | 195 | 4.3 | 7.8 | 0.00 | 0.00 | 0.00 | 76 | 1010.5 |
| 20260506194236 | 66 | 248 | 7.8 | 13.9 | 0.00 | 0.00 | 0.00 | 77 | 1010.6 |
| 20260506193734 | 66 | 233 | 2.6 | 5.2 | 0.00 | 0.00 | 0.00 | 78 | 1010.6 |
| 20260506193230 | 66 | 241 | 5.2 | 7.8 | 0.00 | 0.00 | 0.00 | 79 | 1010.8 |
| 20260506192727 | 65 | 155 | 4.3 | 7.0 | 0.00 | 0.00 | 0.00 | 80 | 1010.9 |
| 20260506192224 | 65 | 228 | 6.1 | 15.6 | 0.00 | 0.00 | 0.00 | 81 | 1011.1 |
| 20260506191721 | 66 | 221 | 9.6 | 13.9 | 0.00 | 0.00 | 0.00 | 80 | 1010.9 |
| 20260506191217 | 65 | 261 | 3.5 | 9.6 | 0.00 | 0.00 | 0.00 | 81 | 1010.9 |
| 20260506190714 | 65 | 204 | 1.7 | 6.1 | 0.00 | 0.00 | 0.00 | 83 | 1010.9 |
| 20260506190210 | 65 | 209 | 7.0 | 11.3 | 0.00 | 0.00 | 0.00 | 82 | 1011.0 |
| 20260506185707 | 65 | 206 | 6.1 | 8.7 | 0.00 | 0.00 | 0.00 | 82 | 1011.1 |
| 20260506185203 | 64 | 158 | 9.6 | 12.2 | 0.00 | 0.00 | 0.00 | 83 | 1011.0 |
| 20260506184701 | 65 | 203 | 1.7 | 2.6 | 0.00 | 0.00 | 0.00 | 79 | 1010.9 |
| 20260506184159 | 65 | 243 | 1.7 | 1.7 | 0.00 | 0.00 | 0.00 | 78 | 1011.0 |
| 20260506183655 | 65 | 273 | 1.7 | 3.5 | 0.00 | 0.00 | 0.00 | 79 | 1011.0 |
| 20260506183151 | 65 | 226 | 3.5 | 3.5 | 0.00 | 0.00 | 0.00 | 78 | 1010.8 |
| 20260506182649 | 64 | 232 | 0.0 | 1.7 | 0.00 | 0.00 | 0.00 | 79 | 1010.8 |
| 20260506182145 | 64 | 264 | 0.9 | 3.5 | 0.00 | 0.00 | 0.00 | 80 | 1011.0 |
| 20260506181643 | 64 | 235 | 0.9 | 5.2 | 0.00 | 0.00 | 0.00 | 80 | 1011.2 |
| 20260506181140 | 64 | 239 | 2.6 | 3.5 | 0.00 | 0.00 | 0.00 | 81 | 1011.1 |
| 20260506180637 | 64 | 211 | 0.9 | 2.6 | 0.00 | 0.00 | 0.00 | 82 | 1011.0 |
| 20260506180133 | 63 | 238 | 1.7 | 3.5 | 0.00 | 0.00 | 0.00 | 82 | 1011.4 |
| 20260506175630 | 64 | 190 | 1.7 | 1.7 | 0.00 | 0.00 | 0.00 | 83 | 1011.5 |
| 20260506175126 | 63 | 219 | 1.7 | 5.2 | 0.00 | 0.00 | 0.00 | 83 | 1011.6 |
| 20260506174625 | 64 | 17 | 0.9 | 2.6 | 0.00 | 0.00 | 0.00 | 83 | 1011.6 |
| 20260506174121 | 64 | 232 | 0.0 | 1.7 | 0.00 | 0.00 | 0.00 | 83 | 1011.5 |
| 20260506173619 | 64 | 36 | 0.9 | 5.2 | 0.00 | 0.00 | 0.00 | 82 | 1011.8 |
| 20260506173115 | 65 | 215 | 1.7 | 2.6 | 0.00 | 0.00 | 0.00 | 80 | 1011.5 |
| 20260506172613 | 66 | 281 | 0.9 | 1.7 | 0.00 | 0.00 | 0.00 | 79 | 1011.8 |
| 20260506172109 | 66 | 228 | 0.0 | 3.5 | 0.00 | 0.00 | 0.00 | 81 | 1011.7 |
| 20260506171607 | 65 | 225 | 1.7 | 2.6 | 0.00 | 0.00 | 0.00 | 82 | 1011.8 |
| 20260506171104 | 64 | 243 | 0.9 | 3.5 | 0.00 | 0.00 | 0.00 | 83 | 1011.8 |
| 20260506170601 | 64 | 227 | 0.9 | 2.6 | 0.00 | 0.00 | 0.00 | 82 | 1011.9 |
| 20260506170059 | 64 | 187 | 3.5 | 5.2 | 0.00 | 0.00 | 0.00 | 83 | 1012.3 |
| 20260506165557 | 64 | 212 | 0.9 | 1.7 | 0.00 | 0.00 | 0.00 | 84 | 1012.2 |
| 20260506165053 | 64 | 178 | 0.9 | 3.5 | 0.00 | 0.00 | 0.00 | 84 | 1012.6 |
| 20260506164550 | 64 | 236 | 0.9 | 3.5 | 0.00 | 0.00 | 0.00 | 83 | 1012.6 |
| 20260506164047 | 64 | 219 | 0.0 | 1.7 | 0.00 | 0.00 | 0.00 | 83 | 1013.0 |
| 20260506163543 | 64 | 233 | 0.0 | 2.6 | 0.00 | 0.00 | 0.00 | 82 | 1012.9 |
| 20260506163039 | 64 | 234 | 0.0 | 2.6 | 0.00 | 0.00 | 0.00 | 80 | 1012.8 |
| 20260506162536 | 64 | 227 | 0.9 | 1.7 | 0.00 | 0.00 | 0.00 | 80 | 1013.1 |
| 20260506162033 | 64 | 292 | 0.9 | 2.6 | 0.00 | 0.00 | 0.00 | 79 | 1013.0 |
| 20260506161530 | 64 | 230 | 0.9 | 3.5 | 0.00 | 0.00 | 0.00 | 78 | 1013.0 |
| 20260506161027 | 65 | 179 | 1.7 | 3.5 | 0.00 | 0.00 | 0.00 | 75 | 1012.9 |
| 20260506160525 | 66 | 36 | 1.7 | 2.6 | 0.00 | 0.00 | 0.00 | 73 | 1012.9 |
| 20260506160022 | 66 | 211 | 0.9 | 3.5 | 0.00 | 0.00 | 0.00 | 72 | 1013.0 |
| 20260506155520 | 67 | 156 | 1.7 | 2.6 | 0.00 | 0.00 | 0.00 | 71 | 1012.8 |
| 20260506153651 | 65 | 241 | 0.0 | 1.7 | 0.00 | 0.00 | 0.00 | 75 | 1012.9 |
| 20260506153149 | 65 | 267 | 1.7 | 3.5 | 0.00 | 0.00 | 0.00 | 74 | 1013.0 |
| 20260506152645 | 65 | 236 | 0.0 | 2.6 | 0.00 | 0.00 | 0.00 | 75 | 1012.9 |
| 20260506152143 | 65 | 213 | 0.9 | 1.7 | 0.00 | 0.00 | 0.00 | 74 | 1013.0 |
| 20260506151642 | 65 | 259 | 0.9 | 1.7 | 0.00 | 0.00 | 0.00 | 74 | 1013.0 |
| 20260506151138 | 65 | 230 | 2.6 | 3.5 | 0.00 | 0.00 | 0.00 | 73 | 1013.3 |
| 20260506150635 | 65 | 268 | 0.9 | 0.9 | 0.00 | 0.00 | 0.00 | 73 | 1013.1 |
| 20260506150132 | 65 | 246 | 0.9 | 5.2 | 0.00 | 0.00 | 0.00 | 72 | 1013.1 |
| 20260506145629 | 65 | 222 | 0.9 | 1.7 | 0.00 | 0.00 | 0.00 | 73 | 1012.7 |
| 20260506145125 | 65 | 217 | 0.9 | 1.7 | 0.00 | 0.00 | 0.00 | 72 | 1013.0 |
| 20260506144623 | 65 | 76 | 2.6 | 3.5 | 0.00 | 0.00 | 0.00 | 71 | 1013.0 |
| 20260506144119 | 66 | 74 | 0.9 | 3.5 | 0.00 | 0.00 | 0.00 | 71 | 1013.0 |
| 20260506143617 | 66 | 182 | 3.5 | 5.2 | 0.00 | 0.00 | 0.00 | 69 | 1013.2 |
| 20260506143115 | 67 | 322 | 0.9 | 1.7 | 0.00 | 0.00 | 0.00 | 69 | 1013.1 |
| 20260506142613 | 68 | 251 | 3.5 | 5.2 | 0.00 | 0.00 | 0.00 | 66 | 1013.1 |
| 20260506142111 | 69 | 188 | 1.7 | 3.5 | 0.00 | 0.00 | 0.00 | 64 | 1013.1 |
| 20260506141608 | 71 | 195 | 3.5 | 3.5 | 0.00 | 0.00 | 0.00 | 61 | 1013.0 |
| 20260506141107 | 72 | 207 | 4.3 | 11.3 | 0.00 | 0.00 | 0.00 | 57 | 1012.9 |
| 20260506140604 | 72 | 200 | 7.8 | 9.6 | 0.00 | 0.00 | 0.00 | 58 | 1013.0 |
| 20260506140101 | 72 | 237 | 1.7 | 7.8 | 0.00 | 0.00 | 0.00 | 58 | 1012.8 |
| 20260506135558 | 72 | 223 | 2.6 | 7.0 | 0.00 | 0.00 | 0.00 | 59 | 1013.0 |
| 20260506135054 | 72 | 237 | 3.5 | 13.0 | 0.00 | 0.00 | 0.00 | 58 | 1013.4 |
| 20260506134551 | 72 | 201 | 9.6 | 13.9 | 0.00 | 0.00 | 0.00 | 58 | 1013.3 |
| 20260506134046 | 72 | 216 | 2.6 | 7.0 | 0.00 | 0.00 | 0.00 | 60 | 1013.4 |
| 20260506133544 | 71 | 116 | 1.7 | 6.1 | 0.00 | 0.00 | 0.00 | 61 | 1013.0 |
| 20260506133041 | 71 | 64 | 3.5 | 7.0 | 0.00 | 0.00 | 0.00 | 62 | 1013.5 |
| 20260506132538 | 70 | 251 | 2.6 | 7.0 | 0.00 | 0.00 | 0.00 | 63 | 1013.6 |
| 20260506132035 | 70 | 275 | 4.3 | 7.8 | 0.00 | 0.00 | 0.00 | 63 | 1013.7 |
| 20260506131532 | 70 | 224 | 2.6 | 5.2 | 0.00 | 0.00 | 0.00 | 64 | 1013.5 |
| 20260506131028 | 70 | 232 | 3.5 | 11.3 | 0.00 | 0.00 | 0.00 | 64 | 1013.6 |
| 20260506130525 | 69 | 233 | 5.2 | 7.8 | 0.00 | 0.00 | 0.00 | 65 | 1013.5 |
| 20260506130023 | 68 | 246 | 5.2 | 7.8 | 0.00 | 0.00 | 0.00 | 66 | 1013.3 |
| 20260506125521 | 68 | 175 | 4.3 | 11.3 | 0.00 | 0.00 | 0.00 | 67 | 1013.5 |
| 20260506125018 | 67 | 185 | 3.5 | 5.2 | 0.00 | 0.00 | 0.00 | 69 | 1013.3 |
| 20260506124516 | 66 | 193 | 5.2 | 7.8 | 0.00 | 0.00 | 0.00 | 70 | 1013.5 |
| 20260506124014 | 66 | 235 | 4.3 | 9.6 | 0.00 | 0.00 | 0.00 | 71 | 1013.6 |
| 20260506123512 | 66 | 261 | 1.7 | 2.6 | 0.00 | 0.00 | 0.00 | 71 | 1013.5 |
| 20260506123009 | 66 | 221 | 3.5 | 7.0 | 0.00 | 0.00 | 0.00 | 70 | 1013.4 |
| 20260506122506 | 66 | 239 | 2.6 | 5.2 | 0.00 | 0.00 | 0.00 | 70 | 1013.6 |
| 20260506122004 | 66 | 206 | 4.3 | 6.1 | 0.00 | 0.00 | 0.00 | 70 | 1013.6 |
| 20260506121501 | 66 | 228 | 3.5 | 8.7 | 0.00 | 0.00 | 0.00 | 70 | 1013.7 |
| 20260506120957 | 66 | 194 | 3.5 | 9.6 | 0.00 | 0.00 | 0.00 | 70 | 1013.5 |
| 20260506120455 | 66 | 259 | 1.7 | 5.2 | 0.00 | 0.00 | 0.00 | 71 | 1013.7 |
| 20260506115952 | 66 | 213 | 1.7 | 6.1 | 0.00 | 0.00 | 0.00 | 70 | 1013.4 |
| 20260506115450 | 66 | 157 | 5.2 | 7.0 | 0.00 | 0.00 | 0.00 | 71 | 1013.6 |
| 20260506114948 | 66 | 255 | 2.6 | 3.5 | 0.00 | 0.00 | 0.00 | 72 | 1013.7 |
| 20260506114446 | 65 | 168 | 4.3 | 8.7 | 0.00 | 0.00 | 0.00 | 71 | 1013.7 |
| 20260506113944 | 65 | 221 | 2.6 | 5.2 | 0.00 | 0.00 | 0.00 | 72 | 1013.8 |
| 20260506113442 | 64 | 200 | 4.3 | 6.1 | 0.00 | 0.00 | 0.00 | 73 | 1014.0 |
| 20260506112938 | 64 | 252 | 3.5 | 7.0 | 0.00 | 0.00 | 0.00 | 74 | 1013.8 |
| 20260506112436 | 64 | 256 | 1.7 | 11.3 | 0.00 | 0.00 | 0.00 | 74 | 1013.9 |
| 20260506111932 | 64 | 248 | 1.7 | 11.3 | 0.00 | 0.00 | 0.00 | 74 | 1013.8 |
| 20260506111431 | 64 | 207 | 3.5 | 5.2 | 0.00 | 0.00 | 0.00 | 74 | 1013.9 |
| 20260506110927 | 64 | 193 | 3.5 | 12.2 | 0.00 | 0.00 | 0.00 | 74 | 1013.9 |
| 20260506110425 | 64 | 297 | 4.3 | 6.1 | 0.00 | 0.00 | 0.00 | 75 | 1013.6 |
| 20260506105921 | 64 | 231 | 7.0 | 7.8 | 0.00 | 0.00 | 0.00 | 75 | 1013.8 |
| 20260506105418 | 63 | 284 | 3.5 | 5.2 | 0.00 | 0.00 | 0.00 | 76 | 1014.0 |
| 20260506104915 | 63 | 135 | 0.9 | 3.5 | 0.00 | 0.00 | 0.00 | 76 | 1014.0 |
| 20260506104413 | 63 | 219 | 0.9 | 7.8 | 0.00 | 0.00 | 0.00 | 77 | 1014.1 |
| 20260506103911 | 63 | 258 | 3.5 | 7.0 | 0.00 | 0.00 | 0.00 | 78 | 1013.9 |
| 20260506103408 | 62 | 252 | 2.6 | 6.1 | 0.00 | 0.00 | 0.00 | 78 | 1013.8 |
| 20260506102905 | 62 | 238 | 2.6 | 7.0 | 0.00 | 0.00 | 0.00 | 78 | 1013.5 |
| 20260506102403 | 63 | 236 | 3.5 | 5.2 | 0.00 | 0.00 | 0.00 | 78 | 1013.6 |
| 20260506101900 | 62 | 174 | 2.6 | 11.3 | 0.00 | 0.00 | 0.00 | 78 | 1013.5 |
| 20260506101356 | 62 | 223 | 4.3 | 8.7 | 0.00 | 0.00 | 0.00 | 79 | 1013.7 |
| 20260506100854 | 62 | 260 | 3.5 | 5.2 | 0.00 | 0.00 | 0.00 | 79 | 1013.5 |
| 20260506100352 | 62 | 190 | 7.0 | 11.3 | 0.00 | 0.00 | 0.00 | 79 | 1013.6 |
| 20260506095850 | 62 | 207 | 0.9 | 5.2 | 0.00 | 0.00 | 0.00 | 79 | 1013.5 |
| 20260506095348 | 62 | 202 | 1.7 | 5.2 | 0.00 | 0.00 | 0.00 | 79 | 1013.6 |
| 20260506094844 | 62 | 179 | 3.5 | 7.0 | 0.00 | 0.00 | 0.00 | 79 | 1013.6 |
| 20260506094343 | 63 | 235 | 3.5 | 7.8 | 0.00 | 0.00 | 0.00 | 79 | 1013.5 |
| 20260506093840 | 62 | 199 | 2.6 | 7.0 | 0.00 | 0.00 | 0.00 | 79 | 1013.5 |
| 20260506093337 | 63 | 252 | 1.7 | 3.5 | 0.00 | 0.00 | 0.00 | 79 | 1013.7 |
| 20260506092835 | 63 | 165 | 3.5 | 7.0 | 0.00 | 0.00 | 0.00 | 78 | 1013.7 |
| 20260506092333 | 63 | 230 | 2.6 | 5.2 | 0.00 | 0.00 | 0.00 | 79 | 1013.4 |
| 20260506091829 | 63 | 238 | 2.6 | 6.1 | 0.00 | 0.00 | 0.00 | 79 | 1013.7 |
| 20260506091327 | 63 | 217 | 2.6 | 7.0 | 0.00 | 0.00 | 0.00 | 79 | 1013.7 |
| 20260506090825 | 63 | 216 | 4.3 | 7.0 | 0.00 | 0.00 | 0.00 | 79 | 1013.8 |
| 20260506090322 | 63 | 244 | 1.7 | 6.1 | 0.00 | 0.00 | 0.00 | 79 | 1013.7 |
| 20260506085818 | 63 | 221 | 3.5 | 6.1 | 0.00 | 0.00 | 0.00 | 78 | 1013.9 |
| 20260506085315 | 63 | 242 | 1.7 | 3.5 | 0.00 | 0.00 | 0.00 | 78 | 1013.9 |
| 20260506084812 | 63 | 257 | 3.5 | 6.1 | 0.00 | 0.00 | 0.00 | 78 | 1013.6 |
| 20260506084308 | 63 | 236 | 2.6 | 9.6 | 0.00 | 0.00 | 0.00 | 78 | 1013.9 |
| 20260506083805 | 63 | 198 | 2.6 | 5.2 | 0.00 | 0.00 | 0.00 | 78 | 1013.8 |
| 20260506083302 | 63 | 209 | 1.7 | 7.0 | 0.00 | 0.00 | 0.00 | 78 | 1014.1 |
| 20260506082759 | 63 | 238 | 1.7 | 7.0 | 0.00 | 0.00 | 0.00 | 78 | 1013.9 |
| 20260506082255 | 63 | 312 | 0.9 | 2.6 | 0.00 | 0.00 | 0.00 | 78 | 1014.0 |
| 20260506081753 | 63 | 214 | 0.9 | 1.7 | 0.00 | 0.00 | 0.00 | 77 | 1013.7 |
| 20260506081250 | 64 | 248 | 1.7 | 3.5 | 0.00 | 0.00 | 0.00 | 77 | 1013.9 |
| 20260506080748 | 64 | 249 | 1.7 | 6.1 | 0.00 | 0.00 | 0.00 | 77 | 1014.0 |
| 20260506080244 | 64 | 171 | 3.5 | 7.0 | 0.00 | 0.00 | 0.00 | 77 | 1013.8 |
| 20260506073228 | 64 | 249 | 1.7 | 3.5 | 0.00 | 0.00 | 0.00 | 76 | 1014.2 |
| 20260506072725 | 64 | 234 | 3.5 | 3.5 | 0.00 | 0.00 | 0.00 | 76 | 1014.2 |
| 20260506072223 | 64 | 139 | 2.6 | 6.1 | 0.00 | 0.00 | 0.00 | 76 | 1014.1 |
| 20260506071720 | 64 | 107 | 1.7 | 6.1 | 0.00 | 0.00 | 0.00 | 76 | 1014.3 |
| 20260506071218 | 64 | 217 | 2.6 | 2.6 | 0.00 | 0.00 | 0.00 | 76 | 1014.4 |
| 20260506070714 | 64 | 225 | 1.7 | 2.6 | 0.00 | 0.00 | 0.00 | 76 | 1014.2 |
| 20260506070212 | 64 | 224 | 1.7 | 2.6 | 0.00 | 0.00 | 0.00 | 76 | 1014.0 |
| 20260506062148 | 64 | 226 | 1.7 | 7.8 | 0.00 | 0.00 | 0.00 | 75 | 1013.9 |
| 20260506061644 | 64 | 210 | 2.6 | 5.2 | 0.00 | 0.00 | 0.00 | 75 | 1014.0 |
| 20260506061142 | 64 | 260 | 2.6 | 7.0 | 0.00 | 0.00 | 0.00 | 75 | 1013.9 |
| 20260506060640 | 64 | 209 | 4.3 | 8.7 | 0.00 | 0.00 | 0.00 | 75 | 1013.9 |
| 20260506060137 | 64 | 213 | 5.2 | 7.0 | 0.00 | 0.00 | 0.00 | 75 | 1014.1 |
| 20260506051109 | 65 | 220 | 3.5 | 7.0 | 0.00 | 0.00 | 0.00 | 72 | 1014.3 |
| 20260506050607 | 65 | 260 | 3.5 | 3.5 | 0.00 | 0.00 | 0.00 | 72 | 1014.4 |
| 20260506050104 | 65 | 211 | 2.6 | 3.5 | 0.00 | 0.00 | 0.00 | 72 | 1014.4 |
| 20260506045057 | 65 | 250 | 1.7 | 5.2 | 0.00 | 0.00 | 0.00 | 71 | 1014.3 |
| 20260506044556 | 65 | 222 | 0.9 | 2.6 | 0.00 | 0.00 | 0.00 | 71 | 1014.3 |
| 20260506044052 | 65 | 258 | 3.5 | 7.0 | 0.00 | 0.00 | 0.00 | 71 | 1014.6 |
| 20260506043549 | 66 | 214 | 2.6 | 5.2 | 0.00 | 0.00 | 0.00 | 70 | 1014.3 |
| 20260506043047 | 66 | 181 | 1.7 | 6.1 | 0.00 | 0.00 | 0.00 | 69 | 1014.5 |
| 20260506042546 | 66 | 213 | 2.6 | 5.2 | 0.00 | 0.00 | 0.00 | 69 | 1014.5 |
| 20260506042044 | 66 | 240 | 1.7 | 7.8 | 0.00 | 0.00 | 0.00 | 69 | 1014.5 |
| 20260506041542 | 66 | 235 | 0.9 | 5.2 | 0.00 | 0.00 | 0.00 | 69 | 1014.5 |
| 20260506041038 | 66 | 237 | 1.7 | 5.2 | 0.00 | 0.00 | 0.00 | 69 | 1014.5 |